Time;durP1;ratioP1;P1;durP2;ratioP2;P2;SDS_P1;SDS_P2;PMS_P1;PMS_P2;Temp;Humidity;BMP_temperature;BMP_pressure;BME280_temperature;BME280_humidity;BME280_pressure;Samples;Min_cycle;Max_cycle;Signal;HPM_P1;HPM_P2
2021/06/04 00:01:11;;;;;;;10.50;5.10;;;19.30;99.90;;;;;;5012558;28;20100;-79
2021/06/04 00:03:37;;;;;;;7.50;5.10;;;19.20;99.90;;;;;;5012525;28;20436;-79
2021/06/04 00:06:04;;;;;;;8.15;4.90;;;19.30;99.90;;;;;;5014302;28;20105;-80
2021/06/04 00:08:30;;;;;;;12.50;5.50;;;19.40;99.90;;;;;;5012550;28;20073;-79
2021/06/04 00:10:57;;;;;;;6.55;4.80;;;19.40;99.90;;;;;;5012577;28;20076;-79
2021/06/04 00:13:33;;;;;;;7.63;5.40;;;19.40;99.90;;;;;;5012721;28;20092;-80
2021/06/04 00:16:04;;;;;;;7.43;5.47;;;19.40;99.90;;;;;;5012659;28;20113;-80
2021/06/04 00:18:32;;;;;;;10.23;5.80;;;19.40;99.90;;;;;;5010964;28;20341;-78
2021/06/04 00:20:58;;;;;;;9.48;5.70;;;19.40;99.90;;;;;;5013119;28;20670;-80
2021/06/04 00:23:24;;;;;;;7.90;5.05;;;19.40;99.90;;;;;;5011541;28;20037;-80
2021/06/04 00:25:50;;;;;;;9.30;5.32;;;19.40;99.90;;;;;;5012385;28;20124;-80
2021/06/04 00:28:15;;;;;;;6.57;5.25;;;19.40;99.90;;;;;;5012327;28;20125;-79
2021/06/04 00:30:41;;;;;;;9.77;5.65;;;19.30;99.90;;;;;;5011850;28;20458;-80
2021/06/04 00:33:08;;;;;;;9.52;6.40;;;19.30;99.90;;;;;;5012723;28;20018;-80
2021/06/04 00:35:36;;;;;;;10.07;6.18;;;19.20;99.90;;;;;;5011011;28;20477;-81
2021/06/04 00:38:03;;;;;;;11.43;5.97;;;19.30;99.90;;;;;;5012572;28;20030;-79
2021/06/04 00:40:32;;;;;;;6.93;6.10;;;19.30;99.90;;;;;;5012291;28;20042;-79
2021/06/04 00:42:58;;;;;;;8.80;6.20;;;19.20;99.90;;;;;;5012109;28;20423;-79
2021/06/04 00:45:31;;;;;;;6.55;5.50;;;19.10;99.90;;;;;;5011788;28;20448;-80
2021/06/04 00:47:57;;;;;;;6.78;6.05;;;19.20;99.90;;;;;;5013457;28;20466;-80
2021/06/04 00:50:33;;;;;;;10.40;5.97;;;19.20;99.90;;;;;;5011929;28;20034;-79
2021/06/04 00:53:00;;;;;;;10.65;5.68;;;19.20;99.90;;;;;;5011872;28;20038;-80
2021/06/04 00:55:26;;;;;;;8.82;6.00;;;19.10;99.90;;;;;;5012219;28;20046;-80
2021/06/04 00:57:53;;;;;;;7.43;5.82;;;19.10;99.90;;;;;;5011608;28;20042;-79
2021/06/04 01:00:31;;;;;;;6.75;6.05;;;19.10;99.90;;;;;;5010543;28;20076;-78
2021/06/04 01:02:58;;;;;;;8.48;5.63;;;19.00;99.90;;;;;;5013189;28;20440;-80
2021/06/04 01:05:26;;;;;;;7.70;6.45;;;19.10;99.90;;;;;;5011653;28;20049;-79
2021/06/04 01:08:08;;;;;;;6.80;5.90;;;19.00;99.90;;;;;;5011498;28;20037;-79
2021/06/04 01:11:06;;;;;;;7.88;6.60;;;19.00;99.90;;;;;;5012030;28;20034;-79
2021/06/04 01:13:46;;;;;;;9.52;6.97;;;18.90;99.90;;;;;;5011333;28;20060;-80
2021/06/04 01:16:20;;;;;;;8.82;5.93;;;18.90;99.90;;;;;;5011455;28;20117;-79
2021/06/04 01:19:30;;;;;;;7.28;6.18;;;18.90;99.90;;;;;;5011224;28;20155;-80
2021/06/04 01:22:02;;;;;;;11.30;6.32;;;18.90;99.90;;;;;;4998194;28;20034;-79
2021/06/04 01:24:52;;;;;;;10.65;7.05;;;18.90;99.90;;;;;;5011116;28;20068;-80
2021/06/04 01:27:27;;;;;;;10.13;6.32;;;18.90;99.90;;;;;;5010973;28;20022;-79
2021/06/04 01:30:01;;;;;;;13.73;6.10;;;18.90;99.90;;;;;;5012321;28;20028;-81
2021/06/04 01:32:30;;;;;;;8.45;6.15;;;18.90;99.90;;;;;;5010190;28;20040;-80
2021/06/04 01:35:08;;;;;;;8.13;5.95;;;18.90;99.90;;;;;;5009423;28;20062;-78
2021/06/04 01:37:34;;;;;;;8.63;6.00;;;18.90;99.90;;;;;;4990156;28;20065;-78
2021/06/04 01:40:08;;;;;;;8.98;6.30;;;18.90;99.90;;;;;;4992743;28;20065;-78
2021/06/04 01:42:37;;;;;;;6.45;4.97;;;18.90;99.90;;;;;;4991469;28;20050;-79
2021/06/04 01:45:09;;;;;;;7.47;5.75;;;18.90;99.90;;;;;;4992945;28;20026;-80
2021/06/04 01:47:38;;;;;;;8.63;5.82;;;19.00;99.90;;;;;;4990248;28;20046;-80
2021/06/04 01:50:17;;;;;;;7.97;6.13;;;18.90;99.90;;;;;;4991371;28;20046;-81
2021/06/04 01:52:44;;;;;;;6.38;5.72;;;19.00;99.90;;;;;;4989968;28;20042;-81
2021/06/04 01:55:24;;;;;;;13.50;5.57;;;19.00;99.90;;;;;;4991510;28;20031;-81
2021/06/04 01:58:01;;;;;;;9.82;6.60;;;19.00;99.90;;;;;;4990273;28;20129;-81
2021/06/04 02:00:35;;;;;;;9.20;6.05;;;18.90;99.90;;;;;;4990497;28;20085;-82
2021/06/04 02:03:01;;;;;;;10.32;6.40;;;18.90;99.90;;;;;;4992541;28;20022;-81
2021/06/04 02:05:31;;;;;;;11.68;6.32;;;18.90;99.90;;;;;;4991261;28;20038;-81
2021/06/04 02:07:57;;;;;;;9.10;6.45;;;18.90;99.90;;;;;;4990646;28;20038;-80
2021/06/04 02:10:34;;;;;;;8.15;6.15;;;18.80;99.90;;;;;;4989683;28;20031;-83
2021/06/04 02:13:02;;;;;;;8.57;6.17;;;18.90;99.90;;;;;;4985465;28;20038;-79
2021/06/04 02:15:31;;;;;;;8.13;6.20;;;18.90;99.90;;;;;;4972603;28;20269;-78
2021/06/04 02:18:16;;;;;;;9.48;6.28;;;18.90;99.90;;;;;;4992304;28;20487;-80
2021/06/04 02:20:48;;;;;;;8.85;6.60;;;18.80;99.90;;;;;;4990347;28;20121;-79
2021/06/04 02:23:31;;;;;;;6.85;6.05;;;18.80;99.90;;;;;;4989729;28;20065;-79
2021/06/04 02:26:08;;;;;;;8.98;5.90;;;18.80;99.90;;;;;;4990715;28;20388;-79
2021/06/04 02:28:59;;;;;;;8.27;6.55;;;18.80;99.90;;;;;;4990736;28;20494;-79
2021/06/04 02:31:31;;;;;;;16.05;6.88;;;18.70;99.90;;;;;;4990174;28;20034;-79
2021/06/04 02:34:06;;;;;;;9.32;6.28;;;18.70;99.90;;;;;;4985305;28;20041;-82
2021/06/04 02:36:42;;;;;;;7.75;6.88;;;18.70;99.90;;;;;;4972941;28;20034;-81
2021/06/04 02:39:16;;;;;;;8.38;6.78;;;18.70;99.90;;;;;;4992099;28;20030;-81
2021/06/04 02:41:46;;;;;;;9.63;6.40;;;18.70;99.90;;;;;;4989691;28;20062;-83
2021/06/04 02:44:18;;;;;;;9.43;6.22;;;18.80;99.90;;;;;;4989127;28;20042;-81
2021/06/04 02:46:51;;;;;;;8.15;6.80;;;18.80;99.90;;;;;;4978711;28;20026;-79
2021/06/04 02:49:19;;;;;;;8.60;6.85;;;18.80;99.90;;;;;;4970612;28;20045;-80
2021/06/04 02:51:59;;;;;;;7.00;6.22;;;18.80;99.90;;;;;;4974861;28;20049;-79
2021/06/04 02:54:29;;;;;;;9.18;6.97;;;18.80;99.90;;;;;;4990649;28;20126;-80
2021/06/04 02:57:01;;;;;;;10.60;7.20;;;18.80;99.90;;;;;;4991844;28;20491;-79
2021/06/04 02:59:31;;;;;;;7.78;6.35;;;19.00;99.90;;;;;;4988982;28;20377;-79
2021/06/04 03:02:21;;;;;;;7.47;6.68;;;18.80;99.90;;;;;;4990206;28;20042;-81
2021/06/04 03:04:51;;;;;;;10.13;6.78;;;18.70;99.90;;;;;;4976990;28;20042;-80
2021/06/04 03:07:25;;;;;;;7.38;6.57;;;18.70;99.90;;;;;;4970831;28;20042;-80
2021/06/04 03:09:52;;;;;;;7.75;6.60;;;18.70;99.90;;;;;;4974553;28;20041;-80
2021/06/04 03:12:31;;;;;;;9.23;6.93;;;18.70;99.90;;;;;;4989958;28;20077;-77
2021/06/04 03:14:58;;;;;;;7.40;6.25;;;18.60;99.90;;;;;;4991686;28;20021;-79
2021/06/04 03:17:32;;;;;;;11.30;6.57;;;18.60;99.90;;;;;;4990258;28;20122;-79
2021/06/04 03:19:58;;;;;;;7.72;6.90;;;18.60;99.90;;;;;;4976793;28;20043;-79
2021/06/04 03:22:30;;;;;;;10.73;6.80;;;18.50;99.90;;;;;;4979426;28;20049;-79
2021/06/04 03:25:01;;;;;;;10.48;8.15;;;18.50;99.90;;;;;;4988825;28;20093;-80
2021/06/04 03:27:27;;;;;;;11.23;8.13;;;18.50;99.90;;;;;;4989729;28;20022;-80
2021/06/04 03:29:53;;;;;;;10.15;7.65;;;18.50;99.90;;;;;;4990816;28;20097;-80
2021/06/04 03:32:19;;;;;;;8.93;7.53;;;18.50;99.90;;;;;;4989042;28;20060;-80
2021/06/04 03:34:46;;;;;;;11.13;8.13;;;18.50;99.90;;;;;;4990014;28;20096;-80
2021/06/04 03:37:14;;;;;;;9.63;7.80;;;18.40;99.90;;;;;;4989854;28;20070;-81
2021/06/04 03:39:43;;;;;;;9.75;7.25;;;18.40;99.90;;;;;;4989506;28;20102;-79
2021/06/04 03:42:14;;;;;;;9.90;7.15;;;18.50;99.90;;;;;;4990019;28;20560;-80
2021/06/04 03:44:43;;;;;;;10.60;7.15;;;18.40;99.90;;;;;;4990028;28;20181;-82
2021/06/04 03:47:10;;;;;;;9.60;7.47;;;18.40;99.90;;;;;;4989786;28;20472;-80
2021/06/04 03:49:36;;;;;;;10.68;7.50;;;18.40;99.90;;;;;;4989903;28;20043;-81
2021/06/04 03:52:04;;;;;;;13.98;7.90;;;18.40;99.90;;;;;;4989864;28;20030;-80
2021/06/04 03:54:38;;;;;;;10.93;8.18;;;18.30;99.90;;;;;;4992993;28;20089;-80
2021/06/04 03:57:07;;;;;;;9.27;7.20;;;18.30;99.90;;;;;;4994008;28;20057;-81
2021/06/04 03:59:34;;;;;;;11.93;8.50;;;18.30;99.90;;;;;;4993263;28;20035;-80
2021/06/04 04:02:05;;;;;;;12.13;9.20;;;18.30;99.90;;;;;;4993214;28;20039;-83
2021/06/04 04:04:31;;;;;;;14.65;9.15;;;18.20;99.90;;;;;;4992405;28;20054;-80
2021/06/04 04:06:58;;;;;;;10.20;8.43;;;18.20;99.90;;;;;;4992456;28;20066;-83
2021/06/04 04:09:23;;;;;;;11.77;9.85;;;18.20;99.90;;;;;;4992037;28;20498;-82
2021/06/04 04:11:51;;;;;;;12.85;8.77;;;18.30;99.90;;;;;;4994861;28;20106;-81
2021/06/04 04:14:18;;;;;;;9.40;7.68;;;18.40;99.90;;;;;;4993134;28;20085;-78
2021/06/04 04:16:44;;;;;;;14.00;8.50;;;18.30;99.90;;;;;;4980996;28;20143;-81
2021/06/04 04:19:10;;;;;;;10.45;8.38;;;18.30;99.90;;;;;;4973538;28;20047;-80
2021/06/04 04:21:36;;;;;;;8.70;7.53;;;18.30;99.90;;;;;;4975622;28;20401;-79
2021/06/04 04:24:10;;;;;;;12.77;8.77;;;18.40;99.90;;;;;;4993039;28;20026;-80
2021/06/04 04:26:39;;;;;;;11.15;8.07;;;18.40;99.90;;;;;;4993018;28;20038;-80
2021/06/04 04:29:05;;;;;;;10.45;8.45;;;18.50;99.90;;;;;;4991701;28;20042;-81
2021/06/04 04:31:33;;;;;;;9.73;8.30;;;18.40;99.90;;;;;;4992873;28;20038;-82
2021/06/04 04:33:58;;;;;;;12.65;9.00;;;18.40;99.90;;;;;;4992742;28;20057;-80
2021/06/04 04:36:30;;;;;;;11.55;7.85;;;18.40;99.90;;;;;;4992139;28;20031;-81
2021/06/04 04:38:56;;;;;;;9.70;8.10;;;18.40;99.90;;;;;;4994292;28;20034;-80
2021/06/04 04:41:22;;;;;;;14.32;8.43;;;18.50;99.90;;;;;;4992512;28;20097;-80
2021/06/04 04:43:50;;;;;;;11.57;8.68;;;18.40;99.90;;;;;;4992340;28;20151;-79
2021/06/04 04:46:17;;;;;;;;;;;18.50;99.90;;;;;;4991404;28;20423;-79
2021/06/04 04:48:43;;;;;;;9.93;7.68;;;18.50;99.90;;;;;;4992650;28;19924;-79
2021/06/04 04:51:09;;;;;;;13.07;8.52;;;18.50;99.90;;;;;;4994084;28;20471;-78
2021/06/04 04:53:35;;;;;;;10.68;8.00;;;18.60;99.90;;;;;;4992246;28;20027;-80
2021/06/04 04:56:03;;;;;;;12.75;8.68;;;18.60;99.90;;;;;;4992481;28;20046;-81
2021/06/04 04:58:28;;;;;;;12.20;8.60;;;18.70;99.90;;;;;;4992736;28;20363;-81
2021/06/04 05:00:55;;;;;;;13.50;8.75;;;18.70;99.90;;;;;;4992174;28;20066;-80
2021/06/04 05:03:21;;;;;;;10.20;8.02;;;18.70;99.90;;;;;;4992202;28;20022;-79
2021/06/04 05:05:47;;;;;;;10.40;8.55;;;18.70;99.90;;;;;;4992946;28;20054;-79
2021/06/04 05:08:13;;;;;;;14.85;8.73;;;18.80;99.90;;;;;;4991938;28;20101;-79
2021/06/04 05:10:39;;;;;;;15.85;9.52;;;18.90;99.90;;;;;;4991701;28;20522;-78
2021/06/04 05:13:06;;;;;;;12.05;9.57;;;19.00;99.90;;;;;;4990679;28;20046;-78
2021/06/04 05:15:34;;;;;;;10.93;8.55;;;19.10;99.90;;;;;;4989693;28;20483;-79
2021/06/04 05:18:00;;;;;;;12.85;9.25;;;19.10;99.90;;;;;;4973109;28;20064;-78
2021/06/04 05:20:26;;;;;;;14.32;9.75;;;19.00;99.90;;;;;;5004678;28;20228;-78
2021/06/04 05:22:53;;;;;;;13.27;9.73;;;19.10;99.90;;;;;;4991656;28;20042;-78
2021/06/04 05:25:23;;;;;;;14.25;10.38;;;19.20;99.90;;;;;;4991597;28;20034;-78
2021/06/04 05:27:51;;;;;;;18.33;10.70;;;19.30;99.90;;;;;;4990581;28;20134;-78
2021/06/04 05:30:25;;;;;;;16.75;10.27;;;19.40;99.90;;;;;;4993203;28;20022;-78
2021/06/04 05:32:51;;;;;;;18.88;11.50;;;19.40;99.90;;;;;;4990355;28;20050;-75
2021/06/04 05:35:17;;;;;;;17.33;11.88;;;19.40;99.90;;;;;;4991020;28;20042;-75
2021/06/04 05:37:43;;;;;;;17.45;11.63;;;19.40;99.90;;;;;;5006698;28;20065;-78
2021/06/04 05:40:12;;;;;;;16.17;10.73;;;19.40;99.90;;;;;;4991611;28;20425;-85
2021/06/04 05:42:38;;;;;;;14.07;11.32;;;19.60;99.90;;;;;;4992012;28;20090;-83
2021/06/04 05:45:06;;;;;;;18.33;11.38;;;19.70;99.90;;;;;;4991605;28;20452;-75
2021/06/04 05:47:32;;;;;;;18.77;10.20;;;19.90;99.90;;;;;;4991289;28;20427;-83
2021/06/04 05:49:57;;;;;;;16.27;11.10;;;20.20;99.90;;;;;;5006035;28;20500;-79
2021/06/04 05:52:23;;;;;;;18.52;10.73;;;20.40;99.90;;;;;;4990233;28;20038;-79
2021/06/04 05:54:49;;;;;;;13.90;10.77;;;20.50;99.90;;;;;;4990920;28;20045;-79
2021/06/04 05:57:16;;;;;;;15.23;11.32;;;20.70;99.90;;;;;;4992793;28;20054;-78
2021/06/04 05:59:41;;;;;;;19.63;11.52;;;21.00;99.90;;;;;;4993528;28;20069;-82
2021/06/04 06:02:08;;;;;;;17.30;10.98;;;21.10;99.90;;;;;;4976835;28;20073;-81
2021/06/04 06:04:34;;;;;;;15.02;10.52;;;21.20;99.90;;;;;;4982593;28;20169;-75
2021/06/04 06:07:00;;;;;;;19.27;11.13;;;21.30;99.90;;;;;;4986618;28;20113;-76
2021/06/04 06:09:26;;;;;;;17.25;11.55;;;21.40;99.90;;;;;;4973698;28;20186;-79
2021/06/04 06:12:01;;;;;;;18.92;11.25;;;21.40;99.90;;;;;;4994341;28;20023;-84
2021/06/04 06:14:27;;;;;;;11.98;10.13;;;21.50;99.90;;;;;;4986254;28;20030;-78
2021/06/04 06:16:52;;;;;;;17.70;10.10;;;21.60;99.90;;;;;;4992950;28;20198;-76
2021/06/04 06:19:19;;;;;;;15.68;10.38;;;21.50;99.90;;;;;;4993111;28;20419;-82
2021/06/04 06:21:48;;;;;;;19.77;10.83;;;21.50;99.90;;;;;;4993450;28;20618;-82
2021/06/04 06:24:15;;;;;;;17.30;10.60;;;21.50;99.90;;;;;;4995297;28;20256;-83
2021/06/04 06:26:42;;;;;;;15.27;10.25;;;21.60;99.90;;;;;;4993832;28;20045;-82
2021/06/04 06:29:11;;;;;;;15.32;10.80;;;21.80;99.90;;;;;;4992658;28;20038;-84
2021/06/04 06:31:40;;;;;;;11.88;8.45;;;21.80;99.90;;;;;;4991989;28;20121;-82
2021/06/04 06:34:08;;;;;;;20.80;9.75;;;21.90;99.90;;;;;;4992680;28;20041;-83
2021/06/04 06:36:35;;;;;;;;;;;22.00;99.90;;;;;;4992967;28;20096;-81
2021/06/04 06:39:08;;;;;;;10.38;8.13;;;22.00;99.90;;;;;;4993500;28;20000;-82
2021/06/04 06:41:34;;;;;;;16.63;11.00;;;22.00;99.90;;;;;;4992886;28;20375;-82
2021/06/04 06:43:59;;;;;;;13.98;8.88;;;21.90;99.90;;;;;;4991486;28;20487;-84
2021/06/04 06:46:26;;;;;;;12.73;8.95;;;21.80;99.80;;;;;;4982339;28;20047;-83
2021/06/04 06:48:52;;;;;;;13.98;9.20;;;21.80;99.50;;;;;;4972015;28;20050;-81
2021/06/04 06:51:18;;;;;;;14.43;8.25;;;21.80;99.10;;;;;;4972671;28;20022;-81
2021/06/04 06:53:45;;;;;;;13.98;8.50;;;21.90;99.10;;;;;;4991067;28;20424;-83
2021/06/04 06:56:13;;;;;;;12.27;7.70;;;22.00;98.60;;;;;;4975196;28;20123;-85
2021/06/04 06:58:40;;;;;;;12.40;7.65;;;22.10;98.80;;;;;;4982003;28;20034;-80
2021/06/04 07:01:07;;;;;;;11.48;6.82;;;22.20;98.70;;;;;;4989318;28;20058;-90
2021/06/04 07:03:36;;;;;;;14.82;6.13;;;22.30;98.10;;;;;;4990183;28;20045;-84
2021/06/04 07:06:07;;;;;;;13.02;6.65;;;22.40;97.80;;;;;;4991922;28;20049;-87
2021/06/04 07:08:32;;;;;;;11.93;5.78;;;22.40;97.50;;;;;;4990235;28;20049;-87
2021/06/04 07:10:59;;;;;;;10.07;6.03;;;22.40;96.80;;;;;;4990704;28;20038;-87
2021/06/04 07:13:27;;;;;;;13.45;7.35;;;22.30;97.00;;;;;;4990082;28;20437;-84
2021/06/04 07:16:00;;;;;;;11.18;6.22;;;22.30;96.60;;;;;;4985740;28;20495;-83
2021/06/04 07:18:26;;;;;;;13.07;6.22;;;22.40;97.00;;;;;;4971850;28;20130;-81
2021/06/04 07:20:53;;;;;;;12.18;6.60;;;22.70;97.10;;;;;;4990559;28;20042;-81
2021/06/04 07:23:19;;;;;;;9.43;6.28;;;22.60;96.50;;;;;;4988809;28;20056;-82
2021/06/04 07:25:46;;;;;;;13.07;6.93;;;22.70;96.70;;;;;;4983441;28;20033;-83
2021/06/04 07:28:13;;;;;;;17.88;7.00;;;22.70;96.90;;;;;;4991185;28;20026;-82
2021/06/04 07:30:43;;;;;;;9.67;5.93;;;22.80;96.80;;;;;;4993752;28;20026;-83
2021/06/04 07:33:21;;;;;;;9.18;5.50;;;23.10;96.70;;;;;;4995650;28;20449;-87
2021/06/04 07:35:47;;;;;;;8.75;5.40;;;23.00;95.70;;;;;;4994367;28;20069;-85
2021/06/04 07:38:13;;;;;;;16.10;5.93;;;23.20;95.00;;;;;;4993631;28;20524;-82
2021/06/04 07:40:39;;;;;;;9.95;5.57;;;23.70;95.50;;;;;;4992394;28;20133;-84
2021/06/04 07:43:12;;;;;;;13.40;4.65;;;24.40;95.00;;;;;;4987188;28;20675;-82
2021/06/04 07:45:40;;;;;;;11.05;4.43;;;24.80;94.50;;;;;;4974257;28;22840;-82
2021/06/04 07:48:07;;;;;;;7.82;4.30;;;25.40;93.30;;;;;;4975574;28;20046;-85
2021/06/04 07:50:32;;;;;;;6.45;4.32;;;25.90;92.50;;;;;;4991684;28;20041;-86
2021/06/04 07:52:58;;;;;;;9.52;4.10;;;26.40;91.10;;;;;;4992528;28;20035;-84
2021/06/04 07:55:25;;;;;;;8.43;5.22;;;26.40;90.80;;;;;;4993364;28;20352;-81
2021/06/04 07:57:50;;;;;;;4.93;3.50;;;27.00;90.40;;;;;;4992057;28;20072;-83
2021/06/04 08:00:24;;;;;;;13.00;4.15;;;27.20;90.00;;;;;;4995160;28;20026;-83
2021/06/04 08:02:50;;;;;;;7.00;4.20;;;27.40;87.80;;;;;;4994299;28;20157;-83
2021/06/04 08:05:16;;;;;;;5.95;3.83;;;27.70;90.30;;;;;;4993437;28;20691;-85
2021/06/04 08:07:43;;;;;;;6.95;3.78;;;27.80;87.60;;;;;;4992266;28;20042;-82
2021/06/04 08:10:10;;;;;;;6.80;3.45;;;27.30;87.90;;;;;;4993334;28;20038;-82
2021/06/04 08:12:37;;;;;;;5.45;3.95;;;27.90;89.20;;;;;;4993094;28;20057;-85
2021/06/04 08:15:08;;;;;;;8.85;4.22;;;28.40;86.80;;;;;;4994837;28;20145;-82
2021/06/04 08:17:34;;;;;;;4.85;3.67;;;28.80;84.60;;;;;;4992944;28;20053;-80
2021/06/04 08:20:02;;;;;;;6.32;3.40;;;29.10;84.90;;;;;;4992795;28;20050;-80
2021/06/04 08:22:28;;;;;;;5.28;3.30;;;30.80;80.50;;;;;;4991925;28;20038;-79
2021/06/04 08:24:54;;;;;;;6.72;3.00;;;31.20;79.60;;;;;;4992522;28;20046;-80
2021/06/04 08:27:19;;;;;;;8.82;3.38;;;32.30;78.40;;;;;;4990857;28;20523;-78
2021/06/04 08:29:48;;;;;;;4.88;2.65;;;33.40;71.60;;;;;;4994290;28;20039;-81
2021/06/04 08:32:15;;;;;;;3.90;3.00;;;33.70;70.20;;;;;;4991707;28;20045;-82
2021/06/04 08:34:41;;;;;;;;;;;34.30;66.40;;;;;;4993285;28;20074;-81
2021/06/04 08:37:07;;;;;;;6.97;3.30;;;34.70;63.40;;;;;;4992362;28;19910;-81
2021/06/04 08:39:37;;;;;;;4.25;3.00;;;34.40;61.80;;;;;;4991234;28;20031;-80
2021/06/04 08:42:29;;;;;;;4.90;3.35;;;34.50;60.20;;;;;;4993697;28;20448;-79
2021/06/04 08:45:01;;;;;;;5.78;2.95;;;33.50;59.40;;;;;;4992545;28;20452;-82
2021/06/04 08:47:31;;;;;;;7.20;3.50;;;33.70;60.80;;;;;;4992281;28;20022;-80
2021/06/04 08:50:05;;;;;;;8.15;3.60;;;33.70;59.90;;;;;;4992364;28;20030;-76
2021/06/04 08:52:49;;;;;;;8.05;3.75;;;34.60;60.50;;;;;;4992391;28;20038;-76
2021/06/04 08:55:20;;;;;;;5.70;3.60;;;34.40;57.10;;;;;;4992315;28;20035;-77
2021/06/04 08:57:54;;;;;;;6.35;3.67;;;33.20;58.20;;;;;;4992739;28;20034;-79
2021/06/04 09:00:34;;;;;;;9.00;3.80;;;33.20;59.90;;;;;;4991957;28;20238;-78
2021/06/04 09:03:09;;;;;;;7.03;3.97;;;34.20;58.40;;;;;;4993559;28;20062;-78
2021/06/04 09:05:44;;;;;;;7.90;3.70;;;33.70;58.40;;;;;;4973813;28;20051;-77
2021/06/04 09:08:16;;;;;;;6.93;4.45;;;33.70;58.60;;;;;;4987565;28;20117;-76
2021/06/04 09:10:53;;;;;;;6.57;4.50;;;33.50;57.40;;;;;;4991988;28;20042;-76
2021/06/04 09:13:23;;;;;;;5.95;4.20;;;33.70;57.60;;;;;;4991852;28;20042;-76
2021/06/04 09:15:57;;;;;;;8.60;4.60;;;34.00;57.10;;;;;;4991790;28;20042;-72
2021/06/04 09:18:33;;;;;;;5.38;4.35;;;34.00;57.20;;;;;;4992113;28;20467;-76
2021/06/04 09:21:03;;;;;;;6.43;4.18;;;33.80;56.10;;;;;;4993168;28;20061;-74
2021/06/04 09:23:35;;;;;;;6.97;4.57;;;34.20;54.40;;;;;;4991724;28;20443;-76
2021/06/04 09:26:03;;;;;;;6.57;4.65;;;33.00;56.30;;;;;;4991435;28;20035;-74
2021/06/04 09:29:08;;;;;;;6.32;3.53;;;33.60;56.70;;;;;;4991292;28;20031;-76
2021/06/04 09:31:38;;;;;;;7.25;4.18;;;34.40;55.60;;;;;;4991124;28;20061;-75
2021/06/04 09:34:23;;;;;;;5.10;3.20;;;32.90;54.70;;;;;;4991011;28;20054;-75
2021/06/04 09:37:14;;;;;;;8.13;3.30;;;33.10;56.80;;;;;;4991288;28;20101;-75
2021/06/04 09:39:48;;;;;;;4.75;3.80;;;33.00;56.40;;;;;;4980083;28;20053;-75
2021/06/04 09:42:23;;;;;;;8.70;4.57;;;33.10;56.30;;;;;;4973174;28;20042;-75
2021/06/04 09:45:12;;;;;;;9.40;3.80;;;32.50;56.30;;;;;;4991766;28;20061;-78
2021/06/04 09:47:42;;;;;;;7.93;3.22;;;32.30;57.10;;;;;;4989911;28;20319;-77
2021/06/04 09:50:29;;;;;;;8.07;3.33;;;31.30;57.20;;;;;;4991123;28;20038;-76
2021/06/04 09:53:13;;;;;;;7.05;3.83;;;31.50;59.30;;;;;;4991000;28;20027;-76
2021/06/04 09:55:45;;;;;;;5.95;3.50;;;31.00;57.90;;;;;;4990528;28;20045;-77
2021/06/04 09:58:24;;;;;;;4.88;3.47;;;30.80;59.20;;;;;;4990847;28;20058;-76
2021/06/04 10:01:07;;;;;;;9.23;3.47;;;31.00;59.30;;;;;;4990704;28;20046;-76
2021/06/04 10:03:41;;;;;;;6.75;3.35;;;31.00;58.80;;;;;;4990602;28;20449;-75
2021/06/04 10:06:07;;;;;;;6.30;3.88;;;31.10;59.20;;;;;;4992288;28;20145;-75
2021/06/04 10:08:45;;;;;;;7.65;4.03;;;31.20;59.20;;;;;;4990478;28;20079;-74
2021/06/04 10:11:24;;;;;;;6.75;5.00;;;30.60;59.80;;;;;;4990824;28;20383;-76
2021/06/04 10:14:28;;;;;;;8.73;3.88;;;30.20;60.30;;;;;;4990712;28;20046;-76
2021/06/04 10:17:24;;;;;;;6.72;4.18;;;30.50;61.00;;;;;;4988974;28;20423;-75
2021/06/04 10:19:48;;;;;;;10.93;4.78;;;30.50;60.40;;;;;;4990122;28;20053;-74
2021/06/04 10:22:34;;;;;;;;;;;30.50;60.80;;;;;;4989746;28;20456;-76
2021/06/04 10:25:00;;;;;;;5.13;3.60;;;30.40;61.70;;;;;;4990477;28;19914;-76
2021/06/04 10:27:25;;;;;;;10.57;5.22;;;30.60;61.20;;;;;;4990188;28;20081;-76
2021/06/04 10:30:14;;;;;;;10.98;5.40;;;30.60;60.80;;;;;;4991775;28;20085;-78
2021/06/04 10:33:13;;;;;;;9.90;4.57;;;30.30;61.10;;;;;;4990058;28;20046;-74
2021/06/04 10:35:45;;;;;;;8.30;4.85;;;30.50;61.10;;;;;;4990643;28;20221;-78
2021/06/04 10:38:29;;;;;;;6.13;4.93;;;30.10;61.50;;;;;;4990338;28;20141;-79
2021/06/04 10:40:59;;;;;;;7.43;4.63;;;29.80;62.20;;;;;;4989992;28;20046;-78
2021/06/04 10:43:35;;;;;;;11.38;5.13;;;29.90;61.70;;;;;;4989831;28;20054;-73
2021/06/04 10:46:44;;;;;;;8.93;5.22;;;29.40;62.70;;;;;;4984460;28;20381;-76
2021/06/04 10:49:25;;;;;;;6.95;5.60;;;29.50;63.30;;;;;;4977553;28;20190;-76
2021/06/04 10:51:57;;;;;;;7.80;4.97;;;29.60;63.50;;;;;;4989885;28;20046;-77
2021/06/04 10:54:46;;;;;;;6.88;4.88;;;29.40;63.80;;;;;;4990181;28;20037;-77
2021/06/04 10:57:21;;;;;;;11.52;4.50;;;29.10;64.20;;;;;;4991671;28;20018;-77
2021/06/04 11:00:22;;;;;;;9.38;4.22;;;29.40;64.60;;;;;;4990314;28;20421;-75
2021/06/04 11:03:12;;;;;;;6.40;4.32;;;29.40;65.40;;;;;;4989944;28;20121;-77
2021/06/04 11:05:52;;;;;;;6.78;4.30;;;29.10;66.40;;;;;;4979188;28;20089;-78
2021/06/04 11:08:20;;;;;;;8.07;4.13;;;29.30;66.80;;;;;;4988673;28;20035;-77
2021/06/04 11:10:56;;;;;;;8.13;4.70;;;29.50;66.80;;;;;;4990100;28;20316;-78
2021/06/04 11:13:51;;;;;;;12.65;7.45;;;29.30;66.50;;;;;;4988984;28;20359;-78
2021/06/04 11:16:56;;;;;;;9.45;4.97;;;29.40;66.40;;;;;;4990105;28;20034;-77
2021/06/04 11:19:42;;;;;;;6.50;4.93;;;29.50;66.00;;;;;;4981195;28;20050;-80
2021/06/04 11:22:16;;;;;;;4.07;3.67;;;29.40;65.90;;;;;;4970507;28;20097;-79
2021/06/04 11:24:52;;;;;;;8.27;4.53;;;29.70;66.70;;;;;;4970457;28;20077;-79
2021/06/04 11:27:27;;;;;;;5.65;4.75;;;30.00;66.30;;;;;;4969524;28;20053;-76
2021/06/04 11:29:54;;;;;;;6.40;4.30;;;29.40;66.50;;;;;;4991706;28;20019;-79
2021/06/04 11:32:27;;;;;;;9.23;4.40;;;29.30;67.50;;;;;;4973738;28;20488;-81
2021/06/04 11:35:32;;;;;;;6.60;4.43;;;29.50;67.50;;;;;;4982978;28;20046;-79
2021/06/04 11:38:33;;;;;;;6.78;5.00;;;29.90;67.40;;;;;;4984179;28;20034;-78
2021/06/04 11:41:39;;;;;;;9.18;4.90;;;29.70;68.20;;;;;;4978996;28;20047;-79
2021/06/04 11:44:52;;;;;;;10.38;6.07;;;30.00;67.60;;;;;;4977508;28;20093;-77
2021/06/04 11:47:18;;;;;;;7.53;6.00;;;30.20;66.80;;;;;;4986249;28;20043;-79
2021/06/04 11:49:53;;;;;;;9.20;5.85;;;30.20;66.40;;;;;;4989307;28;20069;-79
2021/06/04 11:52:49;;;;;;;7.88;5.68;;;30.10;65.50;;;;;;4988838;28;20042;-79
2021/06/04 11:55:27;;;;;;;7.13;4.97;;;30.00;65.90;;;;;;4989245;28;20129;-79
2021/06/04 11:57:59;;;;;;;8.65;6.28;;;29.90;66.20;;;;;;4984601;28;20288;-78
2021/06/04 12:00:24;;;;;;;13.95;5.97;;;29.60;66.40;;;;;;4970753;28;20031;-81
2021/06/04 12:03:12;;;;;;;7.85;5.43;;;29.60;67.40;;;;;;4990887;28;20373;-80
2021/06/04 12:05:54;;;;;;;6.65;5.10;;;29.40;68.00;;;;;;4983412;28;20038;-79
2021/06/04 12:08:25;;;;;;;10.43;5.78;;;29.30;69.50;;;;;;4974599;28;20034;-79
2021/06/04 12:10:53;;;;;;;7.07;4.93;;;29.30;68.20;;;;;;4982039;28;20496;-83
2021/06/04 12:13:30;;;;;;;7.78;4.43;;;29.60;68.40;;;;;;4989537;28;20694;-82
2021/06/04 12:16:16;;;;;;;9.25;5.60;;;29.70;68.00;;;;;;4987012;28;20383;-80
2021/06/04 12:18:52;;;;;;;5.15;4.20;;;29.80;67.10;;;;;;4976552;28;20041;-82
2021/06/04 12:21:40;;;;;;;7.38;4.30;;;29.70;66.40;;;;;;4992976;28;20113;-78
2021/06/04 12:24:20;;;;;;;9.23;4.53;;;29.60;66.40;;;;;;4993667;28;20350;-79
2021/06/04 12:27:11;;;;;;;6.22;4.10;;;29.60;66.20;;;;;;4993052;28;20140;-80
2021/06/04 12:29:41;;;;;;;5.60;4.00;;;29.30;66.30;;;;;;4973878;28;20066;-80
2021/06/04 12:32:25;;;;;;;4.95;3.85;;;29.30;66.70;;;;;;4987402;28;20357;-79
2021/06/04 12:34:56;;;;;;;8.27;4.30;;;29.50;66.50;;;;;;4979661;28;20049;-80
2021/06/04 12:37:27;;;;;;;4.13;3.67;;;29.60;65.40;;;;;;4972734;28;20051;-81
2021/06/04 12:40:11;;;;;;;5.93;4.03;;;29.40;64.60;;;;;;4977837;28;20435;-83
2021/06/04 12:42:44;;;;;;;6.47;4.07;;;29.20;64.10;;;;;;4992378;28;20455;-82
2021/06/04 12:45:16;;;;;;;7.10;3.45;;;29.10;64.90;;;;;;4993138;28;20424;-84
2021/06/04 12:48:08;;;;;;;6.38;3.65;;;29.20;65.30;;;;;;4994702;28;20050;-84
2021/06/04 12:50:41;;;;;;;3.85;3.25;;;29.30;63.50;;;;;;4994587;28;20440;-80
2021/06/04 12:53:28;;;;;;;7.25;3.42;;;29.30;64.30;;;;;;4994028;28;20034;-81
2021/06/04 12:55:59;;;;;;;5.88;4.47;;;29.20;64.90;;;;;;4994961;28;20109;-80
2021/06/04 12:58:31;;;;;;;5.55;4.93;;;29.40;66.90;;;;;;4994439;28;20038;-80
2021/06/04 13:01:25;;;;;;;5.13;3.92;;;29.30;66.40;;;;;;4993563;28;20049;-80
2021/06/04 13:04:10;;;;;;;7.57;4.28;;;29.30;68.00;;;;;;4990460;28;20042;-77
2021/06/04 13:06:45;;;;;;;8.35;4.13;;;29.40;68.50;;;;;;4989124;28;20069;-87
2021/06/04 13:09:32;;;;;;;7.80;3.90;;;29.50;68.50;;;;;;4974472;28;20029;-82
2021/06/04 13:12:02;;;;;;;6.07;4.30;;;29.60;67.90;;;;;;4993175;28;20038;-78